Time;durP1;ratioP1;P1;durP2;ratioP2;P2;SDS_P1;SDS_P2;PMS_P1;PMS_P2;Temp;Humidity;BMP_temperature;BMP_pressure;BME280_temperature;BME280_humidity;BME280_pressure;Samples;Min_cycle;Max_cycle;Signal;HPM_P1;HPM_P2
2023/01/07 00:00:15;;;;;;;3.90;2.90;;;;;;;;;;5040842;28;20252;-74
2023/01/07 00:02:41;;;;;;;4.37;2.77;;;;;;;;;;5040103;28;20193;-74
2023/01/07 00:05:08;;;;;;;6.70;3.30;;;;;;;;;;5039416;28;20196;-74
2023/01/07 00:07:34;;;;;;;4.80;2.60;;;;;;;;;;5037439;28;20208;-74
2023/01/07 00:10:00;;;;;;;4.50;2.87;;;;;;;;;;5040154;28;20847;-74
2023/01/07 00:12:26;;;;;;;2.27;2.03;;;;;;;;;;5035346;28;20232;-76
2023/01/07 00:14:53;;;;;;;5.83;3.33;;;;;;;;;;5038175;28;20269;-79
2023/01/07 00:17:19;;;;;;;8.27;4.83;;;;;;;;;;5035737;28;20186;-76
2023/01/07 00:19:45;;;;;;;3.90;2.87;;;;;;;;;;5040324;28;21146;-77
2023/01/07 00:22:11;;;;;;;4.63;3.23;;;;;;;;;;5035569;28;20637;-74
2023/01/07 00:24:38;;;;;;;4.00;3.00;;;;;;;;;;5044356;28;20216;-74
2023/01/07 00:27:05;;;;;;;6.00;3.87;;;;;;;;;;5034249;28;20728;-75
2023/01/07 00:29:32;;;;;;;3.47;2.83;;;;;;;;;;5042702;28;20222;-74
2023/01/07 00:31:58;;;;;;;4.67;3.30;;;;;;;;;;5037727;28;20646;-76
2023/01/07 00:34:25;;;;;;;5.07;3.30;;;;;;;;;;5041564;28;20520;-78
2023/01/07 00:37:16;;;;;;;6.43;4.23;;;;;;;;;;5035759;28;20178;-75
2023/01/07 00:39:37;;;;;;;7.83;4.30;;;;;;;;;;5038583;28;20288;-74
2023/01/07 00:44:48;;;;;;;3.40;2.60;;;;;;;;;;5037834;28;20221;-76
2023/01/07 00:47:14;;;;;;;3.13;2.23;;;;;;;;;;5029137;28;20174;-74
2023/01/07 00:49:40;;;;;;;2.60;2.20;;;;;;;;;;5037214;28;20296;-74
2023/01/07 00:52:06;;;;;;;2.83;2.20;;;;;;;;;;5032525;28;20181;-77
2023/01/07 00:54:32;;;;;;;6.53;4.13;;;;;;;;;;5038599;28;20175;-76
2023/01/07 00:56:59;;;;;;;5.33;2.60;;;;;;;;;;5031864;28;20186;-75
2023/01/07 00:59:25;;;;;;;2.70;2.00;;;;;;;;;;5035425;28;20253;-74
2023/01/07 01:01:51;;;;;;;2.10;1.90;;;;;;;;;;5039663;28;20189;-75
2023/01/07 01:04:18;;;;;;;2.33;2.00;;;;;;;;;;5036799;28;20178;-74
2023/01/07 01:06:44;;;;;;;4.83;2.73;;;;;;;;;;5038816;28;20528;-79
2023/01/07 01:09:11;;;;;;;7.87;4.27;;;;;;;;;;5029014;28;20198;-77
2023/01/07 01:11:38;;;;;;;16.53;8.60;;;;;;;;;;5038176;28;20179;-75
2023/01/07 01:14:04;;;;;;;10.43;6.13;;;;;;;;;;5033899;28;20228;-74
2023/01/07 01:16:30;;;;;;;4.60;3.20;;;;;;;;;;5033341;28;20202;-77
2023/01/07 01:18:56;;;;;;;16.63;8.30;;;;;;;;;;5033820;28;20190;-76
2023/01/07 01:21:22;;;;;;;10.60;5.80;;;;;;;;;;5039658;28;20186;-76
2023/01/07 01:23:50;;;;;;;7.93;4.50;;;;;;;;;;5039816;28;20189;-74
2023/01/07 01:26:17;;;;;;;11.33;6.37;;;;;;;;;;5036170;28;20201;-74
2023/01/07 01:28:43;;;;;;;9.93;4.60;;;;;;;;;;5038292;28;20181;-77
2023/01/07 01:31:10;;;;;;;4.00;2.87;;;;;;;;;;5033959;28;20209;-74
2023/01/07 01:33:45;;;;;;;3.27;2.70;;;;;;;;;;5039508;28;20178;-77
2023/01/07 01:36:12;;;;;;;3.23;2.63;;;;;;;;;;5037955;28;20327;-78
2023/01/07 01:38:38;;;;;;;4.07;3.20;;;;;;;;;;5019342;28;20212;-75
2023/01/07 01:41:05;;;;;;;6.80;3.83;;;;;;;;;;5040932;28;20190;-75
2023/01/07 01:43:33;;;;;;;4.13;3.00;;;;;;;;;;5038626;28;20174;-77
2023/01/07 01:46:02;;;;;;;5.37;3.30;;;;;;;;;;5033553;28;20226;-77
2023/01/07 01:48:29;;;;;;;9.40;4.90;;;;;;;;;;5038997;28;20184;-76
2023/01/07 01:50:56;;;;;;;4.57;3.07;;;;;;;;;;5036935;28;20688;-79
2023/01/07 01:53:25;;;;;;;4.33;2.50;;;;;;;;;;5037906;28;20265;-74
2023/01/07 01:55:56;;;;;;;2.23;2.00;;;;;;;;;;5041380;28;20194;-77
2023/01/07 01:58:55;;;;;;;3.23;2.20;;;;;;;;;;5039301;28;20240;-75
2023/01/07 02:01:21;;;;;;;2.83;2.20;;;;;;;;;;4995735;28;20735;-78
2023/01/07 02:03:48;;;;;;;2.23;1.97;;;;;;;;;;5038797;28;20865;-75
2023/01/07 02:06:23;;;;;;;2.77;1.80;;;;;;;;;;5023163;28;20191;-77
2023/01/07 02:08:49;;;;;;;2.10;1.90;;;;;;;;;;5025709;28;20186;-74
2023/01/07 02:11:22;;;;;;;2.53;1.80;;;;;;;;;;5034201;28;20263;-74
2023/01/07 02:13:58;;;;;;;3.60;2.33;;;;;;;;;;5044127;28;20597;-74
2023/01/07 02:16:34;;;;;;;4.60;2.73;;;;;;;;;;5036674;28;20201;-79
2023/01/07 02:19:19;;;;;;;4.70;2.67;;;;;;;;;;5043419;28;20187;-76
2023/01/07 02:21:53;;;;;;;4.30;2.50;;;;;;;;;;5061892;28;20676;-75
2023/01/07 02:24:38;;;;;;;9.90;4.53;;;;;;;;;;5041403;28;20192;-76
2023/01/07 02:27:04;;;;;;;6.57;3.67;;;;;;;;;;5040172;28;20186;-74
2023/01/07 02:29:49;;;;;;;6.73;3.50;;;;;;;;;;5038093;28;20262;-77
2023/01/07 02:32:25;;;;;;;9.10;4.50;;;;;;;;;;5039959;28;20683;-76
2023/01/07 02:35:10;;;;;;;3.97;2.50;;;;;;;;;;5040780;28;20619;-75
2023/01/07 02:38:08;;;;;;;2.30;1.80;;;;;;;;;;5037782;28;20316;-77
2023/01/07 02:40:53;;;;;;;3.17;2.40;;;;;;;;;;5007929;28;20241;-74
2023/01/07 02:43:40;;;;;;;2.20;1.70;;;;;;;;;;5060816;28;20197;-76
2023/01/07 02:46:09;;;;;;;1.80;1.60;;;;;;;;;;5038572;28;20174;-76
2023/01/07 02:48:36;;;;;;;4.33;2.60;;;;;;;;;;5043119;28;20197;-73
2023/01/07 02:51:02;;;;;;;4.10;2.70;;;;;;;;;;5038448;28;20214;-77
2023/01/07 02:53:28;;;;;;;3.77;2.10;;;;;;;;;;5038950;28;20265;-80
2023/01/07 02:56:07;;;;;;;2.47;2.00;;;;;;;;;;5049197;28;20186;-75
2023/01/07 02:58:57;;;;;;;3.37;1.97;;;;;;;;;;5039533;28;20182;-74
2023/01/07 03:01:52;;;;;;;5.30;2.97;;;;;;;;;;5016509;28;20216;-75
2023/01/07 03:04:21;;;;;;;4.10;2.53;;;;;;;;;;5040658;28;20190;-74
2023/01/07 03:06:55;;;;;;;6.07;3.23;;;;;;;;;;5041606;28;20266;-75
2023/01/07 03:09:32;;;;;;;5.73;2.93;;;;;;;;;;5020347;28;20209;-74
2023/01/07 03:12:09;;;;;;;3.97;2.20;;;;;;;;;;5037258;28;20384;-75
2023/01/07 03:14:45;;;;;;;6.67;3.13;;;;;;;;;;5040149;28;20704;-76
2023/01/07 03:17:14;;;;;;;11.90;4.67;;;;;;;;;;5041436;28;20197;-74
2023/01/07 03:19:42;;;;;;;5.00;2.40;;;;;;;;;;5037007;28;20251;-78
2023/01/07 03:22:09;;;;;;;2.50;1.70;;;;;;;;;;5038855;28;20861;-77
2023/01/07 03:24:37;;;;;;;4.20;2.30;;;;;;;;;;5042860;28;20273;-75
2023/01/07 03:27:04;;;;;;;2.07;1.50;;;;;;;;;;5037368;28;20209;-77
2023/01/07 03:29:31;;;;;;;2.00;1.50;;;;;;;;;;5008868;28;20320;-76
2023/01/07 03:32:02;;;;;;;3.40;2.10;;;;;;;;;;5040455;28;20244;-77
2023/01/07 03:34:31;;;;;;;1.70;1.60;;;;;;;;;;5038417;28;20953;-75
2023/01/07 03:37:01;;;;;;;3.33;2.03;;;;;;;;;;5038480;28;20204;-75
2023/01/07 03:39:29;;;;;;;3.47;2.13;;;;;;;;;;5041897;28;20279;-75
2023/01/07 03:44:42;;;;;;;2.27;1.80;;;;;;;;;;5057109;28;20552;-76
2023/01/07 03:47:09;;;;;;;2.10;1.90;;;;;;;;;;5036132;28;20178;-76
2023/01/07 03:49:35;;;;;;;1.93;1.80;;;;;;;;;;5043420;28;20754;-76
2023/01/07 03:52:02;;;;;;;1.73;1.63;;;;;;;;;;5027689;28;20220;-74
2023/01/07 03:54:28;;;;;;;1.80;1.60;;;;;;;;;;5041434;28;20529;-77
2023/01/07 03:56:54;;;;;;;2.40;1.93;;;;;;;;;;5010669;28;20196;-77
2023/01/07 03:59:20;;;;;;;3.07;1.90;;;;;;;;;;5040120;28;20278;-77
2023/01/07 04:01:47;;;;;;;3.17;2.17;;;;;;;;;;5041320;28;20272;-75
2023/01/07 04:04:14;;;;;;;2.07;1.63;;;;;;;;;;5036438;28;20233;-76
2023/01/07 04:06:40;;;;;;;2.10;1.80;;;;;;;;;;5041589;28;20203;-76
2023/01/07 04:09:07;;;;;;;4.90;2.30;;;;;;;;;;5036789;28;20193;-76
2023/01/07 04:11:33;;;;;;;2.77;2.00;;;;;;;;;;5040470;28;20673;-76
2023/01/07 04:14:00;;;;;;;2.37;1.60;;;;;;;;;;5038853;28;20252;-77
2023/01/07 04:16:27;;;;;;;3.13;1.60;;;;;;;;;;5040516;28;20264;-76
2023/01/07 04:18:54;;;;;;;1.73;1.60;;;;;;;;;;5039603;28;20299;-77
2023/01/07 04:21:21;;;;;;;2.33;1.67;;;;;;;;;;5025684;28;20193;-75
2023/01/07 04:23:47;;;;;;;2.93;1.93;;;;;;;;;;5045174;28;20832;-77
2023/01/07 04:26:13;;;;;;;1.93;1.63;;;;;;;;;;5021411;28;20661;-77
2023/01/07 04:28:40;;;;;;;1.90;1.70;;;;;;;;;;5044737;28;20186;-74
2023/01/07 04:31:07;;;;;;;3.27;1.97;;;;;;;;;;5019324;28;20214;-79
2023/01/07 04:33:35;;;;;;;3.00;1.90;;;;;;;;;;5040679;28;20235;-76
2023/01/07 04:36:02;;;;;;;3.80;2.00;;;;;;;;;;5038274;28;20240;-77
2023/01/07 04:38:29;;;;;;;3.23;2.07;;;;;;;;;;5034076;28;20183;-74
2023/01/07 04:40:55;;;;;;;4.37;2.40;;;;;;;;;;5036218;28;20210;-78
2023/01/07 04:43:22;;;;;;;3.43;2.10;;;;;;;;;;5037735;28;20182;-76
2023/01/07 04:45:48;;;;;;;2.70;2.00;;;;;;;;;;5034271;28;20182;-75
2023/01/07 04:48:16;;;;;;;3.50;2.13;;;;;;;;;;5021127;28;20190;-75
2023/01/07 04:50:43;;;;;;;3.33;1.97;;;;;;;;;;5008191;28;20220;-73
2023/01/07 04:53:09;;;;;;;3.50;1.90;;;;;;;;;;5026038;28;20182;-73
2023/01/07 04:55:38;;;;;;;3.50;1.67;;;;;;;;;;5039305;28;20179;-75
2023/01/07 04:58:04;;;;;;;3.20;1.90;;;;;;;;;;5038241;28;20293;-77
2023/01/07 05:00:31;;;;;;;3.00;1.60;;;;;;;;;;5022197;28;20205;-74
2023/01/07 05:02:58;;;;;;;3.40;1.73;;;;;;;;;;5037610;28;20215;-73
2023/01/07 05:05:25;;;;;;;1.87;1.50;;;;;;;;;;5038864;28;21492;-75
2023/01/07 05:07:52;;;;;;;1.77;1.67;;;;;;;;;;5036510;28;20753;-73
2023/01/07 05:10:19;;;;;;;1.53;1.43;;;;;;;;;;5040170;28;20259;-74
2023/01/07 05:12:46;;;;;;;1.50;1.40;;;;;;;;;;5021313;28;20189;-74
2023/01/07 05:15:14;;;;;;;1.80;1.50;;;;;;;;;;5034142;28;20182;-77
2023/01/07 05:17:42;;;;;;;2.10;1.60;;;;;;;;;;5037341;28;20189;-75
2023/01/07 05:20:09;;;;;;;1.70;1.50;;;;;;;;;;5042662;28;20300;-76
2023/01/07 05:22:37;;;;;;;2.83;1.60;;;;;;;;;;5024619;28;20261;-76
2023/01/07 05:25:04;;;;;;;2.00;1.50;;;;;;;;;;5025371;28;20658;-75
2023/01/07 05:27:31;;;;;;;2.03;1.50;;;;;;;;;;5032279;28;20186;-74
2023/01/07 05:29:58;;;;;;;1.87;1.43;;;;;;;;;;5020549;28;20205;-75
2023/01/07 05:32:25;;;;;;;1.40;1.30;;;;;;;;;;5037656;28;20179;-78
2023/01/07 05:34:51;;;;;;;1.30;1.20;;;;;;;;;;5026800;28;20170;-77
2023/01/07 05:37:17;;;;;;;1.60;1.50;;;;;;;;;;5039667;28;20181;-77
2023/01/07 05:39:44;;;;;;;2.27;1.50;;;;;;;;;;5041801;28;20880;-76
2023/01/07 05:42:15;;;;;;;3.23;1.67;;;;;;;;;;5035011;28;20186;-74
2023/01/07 05:44:41;;;;;;;2.17;1.93;;;;;;;;;;5043332;28;20192;-77
2023/01/07 05:47:08;;;;;;;1.90;1.70;;;;;;;;;;5035410;28;20189;-80
2023/01/07 05:49:34;;;;;;;1.70;1.37;;;;;;;;;;5047599;28;20202;-81
2023/01/07 05:52:00;;;;;;;2.63;1.50;;;;;;;;;;5047294;28;20192;-78
2023/01/07 05:54:26;;;;;;;3.60;1.73;;;;;;;;;;5048824;28;20173;-76
2023/01/07 05:56:52;;;;;;;1.50;1.40;;;;;;;;;;5044471;28;20173;-76
2023/01/07 05:59:18;;;;;;;1.53;1.40;;;;;;;;;;5044554;28;20544;-77
2023/01/07 06:01:44;;;;;;;1.63;1.53;;;;;;;;;;5046194;28;20181;-78
2023/01/07 06:04:11;;;;;;;3.07;1.60;;;;;;;;;;5039481;28;20182;-76
2023/01/07 06:06:37;;;;;;;3.00;1.60;;;;;;;;;;5039012;28;20210;-78
2023/01/07 06:09:03;;;;;;;1.70;1.40;;;;;;;;;;5036732;28;20175;-74
2023/01/07 06:11:29;;;;;;;1.87;1.37;;;;;;;;;;5038130;28;20214;-76
2023/01/07 06:13:56;;;;;;;1.80;1.40;;;;;;;;;;5043621;28;20193;-76
2023/01/07 06:16:22;;;;;;;1.70;1.43;;;;;;;;;;5044239;28;20561;-74
2023/01/07 06:18:48;;;;;;;1.87;1.00;;;;;;;;;;5043612;28;20174;-74
2023/01/07 06:21:17;;;;;;;1.83;1.40;;;;;;;;;;5036026;28;20280;-74
2023/01/07 06:23:43;;;;;;;2.17;1.40;;;;;;;;;;5039450;28;20187;-77
2023/01/07 06:26:09;;;;;;;1.67;1.57;;;;;;;;;;5043638;28;20244;-77
2023/01/07 06:28:35;;;;;;;1.40;1.30;;;;;;;;;;5037733;28;20194;-77
2023/01/07 06:31:01;;;;;;;2.07;1.27;;;;;;;;;;5044794;28;20205;-78
2023/01/07 06:33:27;;;;;;;1.30;1.20;;;;;;;;;;5050093;28;20178;-77
2023/01/07 06:35:54;;;;;;;1.23;1.13;;;;;;;;;;5041813;28;20217;-76
2023/01/07 06:38:20;;;;;;;1.50;1.20;;;;;;;;;;5038545;28;20209;-76
2023/01/07 06:40:46;;;;;;;1.43;1.30;;;;;;;;;;5044576;28;20201;-78
2023/01/07 06:43:12;;;;;;;1.30;1.20;;;;;;;;;;5038935;28;20178;-76
2023/01/07 06:45:38;;;;;;;1.40;1.23;;;;;;;;;;5042313;28;20183;-80
2023/01/07 06:48:05;;;;;;;1.40;1.20;;;;;;;;;;5032732;28;20187;-75
2023/01/07 06:50:31;;;;;;;1.40;1.30;;;;;;;;;;5043868;28;20218;-74
2023/01/07 06:52:57;;;;;;;1.40;1.30;;;;;;;;;;5047545;28;20186;-75
2023/01/07 06:55:23;;;;;;;4.60;1.60;;;;;;;;;;5030158;28;20228;-74
2023/01/07 06:57:49;;;;;;;1.87;1.37;;;;;;;;;;5042548;28;20264;-73
2023/01/07 07:00:15;;;;;;;1.60;1.10;;;;;;;;;;5035843;28;20194;-73
2023/01/07 07:02:42;;;;;;;1.40;1.30;;;;;;;;;;5039029;28;20204;-74
2023/01/07 07:05:08;;;;;;;1.30;1.10;;;;;;;;;;5041750;28;20653;-75
2023/01/07 07:07:34;;;;;;;1.90;1.40;;;;;;;;;;5044861;28;20186;-74
2023/01/07 07:10:05;;;;;;;1.30;1.20;;;;;;;;;;5043911;28;20222;-77
2023/01/07 07:12:32;;;;;;;1.30;1.20;;;;;;;;;;5035115;28;20179;-75
2023/01/07 07:14:58;;;;;;;2.13;1.60;;;;;;;;;;5035658;28;20235;-74
2023/01/07 07:17:24;;;;;;;1.67;1.40;;;;;;;;;;5039996;28;20178;-74
2023/01/07 07:19:50;;;;;;;1.27;1.17;;;;;;;;;;5040726;28;20224;-75
2023/01/07 07:22:17;;;;;;;1.43;1.20;;;;;;;;;;5039314;28;20877;-77
2023/01/07 07:24:43;;;;;;;1.37;1.27;;;;;;;;;;5036983;28;20192;-73
2023/01/07 07:27:09;;;;;;;2.10;1.40;;;;;;;;;;5040921;28;20186;-74
2023/01/07 07:29:35;;;;;;;1.33;1.20;;;;;;;;;;5045258;28;20228;-77
2023/01/07 07:32:02;;;;;;;1.30;1.20;;;;;;;;;;5034937;28;20178;-78
2023/01/07 07:34:28;;;;;;;1.50;1.40;;;;;;;;;;5039390;28;20179;-75
2023/01/07 07:36:54;;;;;;;1.43;1.33;;;;;;;;;;5041035;28;20190;-77
2023/01/07 07:39:20;;;;;;;2.00;1.40;;;;;;;;;;5048906;28;20210;-75
2023/01/07 07:41:46;;;;;;;1.43;1.30;;;;;;;;;;5038942;28;20209;-76
2023/01/07 07:44:16;;;;;;;1.50;1.40;;;;;;;;;;5030840;28;20261;-76
2023/01/07 07:46:42;;;;;;;1.43;1.30;;;;;;;;;;5038446;28;20273;-74
2023/01/07 07:49:09;;;;;;;1.37;1.27;;;;;;;;;;5044486;28;20740;-75
2023/01/07 07:51:35;;;;;;;1.53;1.43;;;;;;;;;;5038195;28;20767;-75
2023/01/07 07:54:02;;;;;;;1.47;1.30;;;;;;;;;;5046808;28;20217;-76
2023/01/07 07:56:28;;;;;;;2.33;1.37;;;;;;;;;;5045025;28;20571;-77
2023/01/07 07:58:54;;;;;;;1.90;1.50;;;;;;;;;;5042029;28;20277;-74
2023/01/07 08:01:20;;;;;;;1.30;1.20;;;;;;;;;;5043013;28;20356;-77
2023/01/07 08:03:46;;;;;;;1.83;1.30;;;;;;;;;;5046990;28;20178;-79
2023/01/07 08:06:13;;;;;;;1.97;1.20;;;;;;;;;;5039817;28;20193;-81
2023/01/07 08:08:39;;;;;;;1.37;1.20;;;;;;;;;;5041123;28;20174;-78
2023/01/07 08:11:05;;;;;;;1.30;1.20;;;;;;;;;;5036695;28;20205;-76
2023/01/07 08:13:31;;;;;;;1.40;1.30;;;;;;;;;;5033320;28;20269;-78
2023/01/07 08:15:57;;;;;;;1.30;1.20;;;;;;;;;;5029950;28;20186;-74
2023/01/07 08:18:24;;;;;;;1.20;1.10;;;;;;;;;;5038339;28;20175;-74
2023/01/07 08:20:50;;;;;;;2.13;1.70;;;;;;;;;;5038284;28;20711;-74
2023/01/07 08:23:16;;;;;;;1.97;1.70;;;;;;;;;;5042778;28;20654;-74
2023/01/07 08:25:42;;;;;;;2.10;1.80;;;;;;;;;;5046869;28;20223;-74
2023/01/07 08:28:09;;;;;;;5.73;3.83;;;;;;;;;;5044887;28;20194;-73
2023/01/07 08:30:35;;;;;;;4.93;3.40;;;;;;;;;;5038104;28;20244;-76
2023/01/07 08:33:03;;;;;;;3.43;2.60;;;;;;;;;;5037275;28;20174;-77
2023/01/07 08:35:29;;;;;;;3.47;2.43;;;;;;;;;;5031822;28;20747;-76
2023/01/07 08:38:06;;;;;;;3.83;2.03;;;;;;;;;;5043126;28;20193;-80
2023/01/07 08:40:32;;;;;;;3.27;2.00;;;;;;;;;;5037894;28;20217;-77
2023/01/07 08:42:59;;;;;;;2.40;2.03;;;;;;;;;;5038548;28;20790;-77
2023/01/07 08:45:26;;;;;;;2.50;2.10;;;;;;;;;;5041466;28;20174;-78
2023/01/07 08:47:56;;;;;;;1.60;1.50;;;;;;;;;;5033054;28;20186;-75
2023/01/07 08:50:27;;;;;;;1.60;1.50;;;;;;;;;;5035335;28;20232;-75
2023/01/07 08:52:54;;;;;;;1.60;1.50;;;;;;;;;;5039138;28;20261;-75
2023/01/07 08:55:20;;;;;;;1.90;1.70;;;;;;;;;;5039243;28;20573;-74
2023/01/07 08:57:46;;;;;;;2.47;1.50;;;;;;;;;;5046048;28;20178;-75
2023/01/07 09:00:13;;;;;;;1.63;1.40;;;;;;;;;;5040043;28;20297;-75
2023/01/07 09:02:40;;;;;;;2.70;1.40;;;;;;;;;;5034859;28;20194;-75
2023/01/07 09:05:06;;;;;;;2.20;1.50;;;;;;;;;;5015528;28;20173;-76
2023/01/07 09:07:32;;;;;;;1.43;1.33;;;;;;;;;;5040048;28;20832;-76
2023/01/07 09:09:58;;;;;;;2.23;1.50;;;;;;;;;;5045021;28;20211;-75
2023/01/07 09:12:24;;;;;;;1.57;1.30;;;;;;;;;;5039679;28;20258;-75
2023/01/07 09:14:50;;;;;;;1.70;1.40;;;;;;;;;;5044277;28;20262;-76
2023/01/07 09:17:17;;;;;;;1.40;1.30;;;;;;;;;;5042512;28;20681;-78
2023/01/07 09:19:43;;;;;;;1.30;1.20;;;;;;;;;;5037627;28;20206;-77
2023/01/07 09:22:09;;;;;;;2.07;1.30;;;;;;;;;;5040442;28;20177;-79
2023/01/07 09:24:35;;;;;;;1.93;1.73;;;;;;;;;;5039725;28;20202;-78
2023/01/07 09:27:01;;;;;;;2.23;1.87;;;;;;;;;;5040968;28;20175;-77
2023/01/07 09:29:28;;;;;;;1.60;1.50;;;;;;;;;;5046613;28;20281;-76
2023/01/07 09:31:54;;;;;;;1.90;1.60;;;;;;;;;;5035122;28;20320;-77
2023/01/07 09:34:20;;;;;;;2.70;1.30;;;;;;;;;;5038709;28;20200;-76
2023/01/07 09:36:46;;;;;;;1.60;1.40;;;;;;;;;;5022790;28;20185;-77
2023/01/07 09:39:12;;;;;;;2.03;1.70;;;;;;;;;;5038247;28;20201;-79
2023/01/07 09:41:47;;;;;;;1.53;1.40;;;;;;;;;;5040011;28;20248;-78
2023/01/07 09:44:17;;;;;;;1.70;1.60;;;;;;;;;;5035950;28;20173;-78
2023/01/07 09:46:45;;;;;;;2.33;2.00;;;;;;;;;;5039315;28;20278;-77
2023/01/07 09:49:17;;;;;;;2.20;1.60;;;;;;;;;;5023588;28;20200;-77
2023/01/07 09:51:45;;;;;;;1.73;1.33;;;;;;;;;;5037769;28;20212;-81
2023/01/07 09:54:21;;;;;;;1.30;1.20;;;;;;;;;;5038100;28;20240;-76
2023/01/07 09:56:47;;;;;;;3.10;2.30;;;;;;;;;;5042354;28;20182;-77
2023/01/07 09:59:13;;;;;;;2.60;2.40;;;;;;;;;;5037580;28;20214;-77
2023/01/07 10:01:59;;;;;;;2.40;1.50;;;;;;;;;;5035884;28;20205;-77
2023/01/07 10:04:31;;;;;;;1.30;1.10;;;;;;;;;;5035563;28;20178;-77
2023/01/07 10:07:17;;;;;;;1.30;1.20;;;;;;;;;;5039576;28;20228;-77
2023/01/07 10:09:56;;;;;;;1.20;1.10;;;;;;;;;;5034954;28;20220;-77
2023/01/07 10:12:39;;;;;;;1.10;1.00;;;;;;;;;;5038009;28;20599;-81
2023/01/07 10:15:06;;;;;;;0.70;0.70;;;;;;;;;;5042415;28;20182;-78
2023/01/07 10:17:38;;;;;;;1.43;1.30;;;;;;;;;;5037529;28;20183;-78
2023/01/07 10:20:13;;;;;;;1.63;1.00;;;;;;;;;;5037503;28;20271;-78
2023/01/07 10:22:45;;;;;;;1.23;1.13;;;;;;;;;;5043136;28;20261;-78
2023/01/07 10:25:15;;;;;;;1.87;1.27;;;;;;;;;;5039498;28;20265;-77
2023/01/07 10:27:42;;;;;;;2.03;1.37;;;;;;;;;;5039231;28;20180;-77
2023/01/07 10:30:13;;;;;;;1.60;1.50;;;;;;;;;;5035345;28;20216;-79
2023/01/07 10:32:39;;;;;;;1.10;1.00;;;;;;;;;;5044038;28;20324;-80
2023/01/07 10:35:12;;;;;;;1.67;1.10;;;;;;;;;;5034684;28;20187;-77
2023/01/07 10:37:39;;;;;;;0.90;0.90;;;;;;;;;;5042822;28;20179;-78
2023/01/07 10:40:27;;;;;;;0.97;0.87;;;;;;;;;;5038043;28;20628;-77
2023/01/07 10:43:00;;;;;;;1.10;1.00;;;;;;;;;;5060891;28;20191;-80
2023/01/07 10:45:32;;;;;;;1.20;1.10;;;;;;;;;;5039217;28;20182;-79
2023/01/07 10:48:15;;;;;;;1.53;1.10;;;;;;;;;;5043451;28;20197;-79
2023/01/07 10:50:48;;;;;;;1.30;1.20;;;;;;;;;;5040330;28;20937;-80
2023/01/07 10:53:23;;;;;;;1.00;0.80;;;;;;;;;;5041475;28;20182;-81
2023/01/07 10:55:56;;;;;;;1.20;1.00;;;;;;;;;;5051836;28;20182;-77
2023/01/07 10:58:22;;;;;;;1.00;0.90;;;;;;;;;;5039681;28;20276;-77
2023/01/07 11:00:48;;;;;;;1.17;0.93;;;;;;;;;;5040156;28;20724;-79
2023/01/07 11:03:17;;;;;;;2.63;1.53;;;;;;;;;;5040780;28;20186;-79
2023/01/07 11:05:45;;;;;;;1.40;1.27;;;;;;;;;;5040788;28;20194;-77
2023/01/07 11:08:15;;;;;;;1.43;1.13;;;;;;;;;;5041484;28;20260;-78
2023/01/07 11:10:41;;;;;;;0.90;0.80;;;;;;;;;;5034711;28;20208;-77
2023/01/07 11:13:15;;;;;;;1.20;1.10;;;;;;;;;;5040557;28;20182;-79
2023/01/07 11:15:42;;;;;;;1.87;1.20;;;;;;;;;;5039709;28;20561;-78
2023/01/07 11:18:13;;;;;;;1.83;1.10;;;;;;;;;;5042019;28;20316;-78
2023/01/07 11:20:52;;;;;;;1.00;0.90;;;;;;;;;;5038416;28;20203;-78
2023/01/07 11:23:29;;;;;;;1.27;1.10;;;;;;;;;;5044872;28;20270;-77
2023/01/07 11:26:05;;;;;;;1.30;1.03;;;;;;;;;;5043221;28;20207;-79
2023/01/07 11:28:31;;;;;;;2.00;1.00;;;;;;;;;;5041369;28;20182;-78
2023/01/07 11:30:59;;;;;;;1.70;1.10;;;;;;;;;;5035985;28;20297;-78
2023/01/07 11:33:28;;;;;;;1.97;1.40;;;;;;;;;;5039003;28;20221;-76
2023/01/07 11:35:55;;;;;;;19.30;8.27;;;;;;;;;;5041671;28;20186;-78
2023/01/07 11:38:26;;;;;;;7.43;3.50;;;;;;;;;;5042204;28;20676;-77
2023/01/07 11:40:56;;;;;;;8.90;4.37;;;;;;;;;;5038785;28;20234;-77
2023/01/07 11:43:24;;;;;;;7.27;3.40;;;;;;;;;;5040571;28;20183;-79
2023/01/07 11:45:55;;;;;;;5.87;2.37;;;;;;;;;;5041881;28;20187;-77
2023/01/07 11:48:32;;;;;;;1.50;1.40;;;;;;;;;;5038811;28;20805;-75
2023/01/07 11:51:01;;;;;;;1.83;1.50;;;;;;;;;;5035188;28;20272;-78
2023/01/07 11:53:50;;;;;;;2.27;1.50;;;;;;;;;;5042185;28;20189;-76
2023/01/07 11:56:19;;;;;;;2.53;1.33;;;;;;;;;;5039707;28;20694;-79
2023/01/07 11:58:50;;;;;;;2.20;2.00;;;;;;;;;;5039544;28;20184;-75
2023/01/07 12:01:21;;;;;;;2.70;1.90;;;;;;;;;;5040363;28;20220;-79
2023/01/07 12:03:53;;;;;;;1.67;1.50;;;;;;;;;;5044237;28;20186;-78
2023/01/07 12:06:23;;;;;;;2.13;1.70;;;;;;;;;;5034807;28;20175;-76
2023/01/07 12:08:54;;;;;;;1.87;1.67;;;;;;;;;;5035487;28;20174;-80
2023/01/07 12:11:21;;;;;;;1.43;1.33;;;;;;;;;;5036038;28;20749;-77
2023/01/07 12:13:48;;;;;;;1.50;1.40;;;;;;;;;;5042045;28;20182;-79
2023/01/07 12:16:14;;;;;;;1.60;1.50;;;;;;;;;;5038697;28;20185;-76
2023/01/07 12:18:50;;;;;;;1.77;1.50;;;;;;;;;;5042870;28;20174;-78
2023/01/07 12:21:23;;;;;;;2.40;2.20;;;;;;;;;;5036569;28;20205;-76
2023/01/07 12:24:08;;;;;;;1.80;1.70;;;;;;;;;;5040936;28;20270;-80
2023/01/07 12:26:49;;;;;;;1.20;1.10;;;;;;;;;;5048567;28;20186;-78
2023/01/07 12:29:34;;;;;;;2.03;1.60;;;;;;;;;;5064786;28;20190;-76
2023/01/07 12:32:01;;;;;;;1.30;1.20;;;;;;;;;;5036089;28;20189;-78
2023/01/07 12:34:30;;;;;;;4.17;3.73;;;;;;;;;;5032788;28;20171;-75
2023/01/07 12:37:01;;;;;;;1.60;1.50;;;;;;;;;;5036547;28;20256;-74
2023/01/07 12:39:34;;;;;;;1.70;1.60;;;;;;;;;;5038584;28;20194;-74
2023/01/07 12:42:12;;;;;;;1.50;1.40;;;;;;;;;;5037022;28;20193;-76
2023/01/07 12:44:58;;;;;;;2.07;1.87;;;;;;;;;;5036737;28;20184;-76
2023/01/07 12:47:26;;;;;;;1.30;1.20;;;;;;;;;;5036263;28;20192;-78
2023/01/07 12:49:53;;;;;;;1.20;1.10;;;;;;;;;;5041853;28;20202;-74
2023/01/07 12:52:35;;;;;;;1.30;1.20;;;;;;;;;;5038514;28;20182;-76
2023/01/07 12:55:04;;;;;;;1.43;1.30;;;;;;;;;;5039655;28;20548;-76
2023/01/07 12:57:33;;;;;;;1.20;1.10;;;;;;;;;;5036153;28;20174;-79
2023/01/07 13:00:18;;;;;;;1.20;1.10;;;;;;;;;;5037406;28;20206;-77
2023/01/07 13:03:05;;;;;;;1.50;1.20;;;;;;;;;;5034737;28;20686;-77
2023/01/07 13:05:36;;;;;;;1.00;1.00;;;;;;;;;;5036373;28;20183;-76
2023/01/07 13:08:10;;;;;;;1.10;1.00;;;;;;;;;;5037870;28;20271;-77
2023/01/07 13:10:41;;;;;;;2.20;1.47;;;;;;;;;;5039915;28;20212;-77
2023/01/07 13:13:36;;;;;;;1.30;1.20;;;;;;;;;;5041104;28;20182;-77
2023/01/07 13:16:08;;;;;;;1.20;1.10;;;;;;;;;;5023408;28;20190;-77
2023/01/07 13:18:35;;;;;;;1.30;1.20;;;;;;;;;;5034328;28;20187;-75
2023/01/07 13:21:11;;;;;;;2.00;1.30;;;;;;;;;;5036214;28;20280;-74
2023/01/07 13:23:47;;;;;;;1.20;1.10;;;;;;;;;;5033407;28;20205;-78
2023/01/07 13:26:19;;;;;;;1.33;1.23;;;;;;;;;;5035260;28;20179;-75
2023/01/07 13:28:52;;;;;;;1.47;1.37;;;;;;;;;;5032932;28;20190;-75
2023/01/07 13:31:37;;;;;;;1.30;1.20;;;;;;;;;;5035906;28;20752;-76
2023/01/07 13:34:12;;;;;;;1.30;1.20;;;;;;;;;;5032653;28;20191;-75
2023/01/07 13:37:05;;;;;;;1.30;1.13;;;;;;;;;;5045369;28;20709;-77
2023/01/07 13:39:50;;;;;;;1.60;1.33;;;;;;;;;;5045657;28;20244;-74
2023/01/07 13:42:35;;;;;;;1.87;1.30;;;;;;;;;;5032672;28;20698;-76
2023/01/07 13:45:02;;;;;;;3.73;3.43;;;;;;;;;;5038070;28;20186;-74
2023/01/07 13:47:43;;;;;;;1.70;1.53;;;;;;;;;;5037695;28;20176;-74
2023/01/07 13:50:34;;;;;;;1.30;1.20;;;;;;;;;;5035798;28;20221;-77
2023/01/07 13:53:26;;;;;;;1.57;1.40;;;;;;;;;;5028913;28;21163;-76
2023/01/07 13:55:54;;;;;;;1.47;1.37;;;;;;;;;;5040524;28;20190;-74
2023/01/07 13:58:38;;;;;;;1.80;1.50;;;;;;;;;;5045720;28;20203;-74
2023/01/07 14:01:06;;;;;;;2.57;1.60;;;;;;;;;;5035736;28;20206;-75
2023/01/07 14:03:48;;;;;;;2.00;1.80;;;;;;;;;;5040241;28;20760;-74
2023/01/07 14:06:23;;;;;;;2.53;1.50;;;;;;;;;;5040790;28;20206;-74
2023/01/07 14:09:12;;;;;;;1.40;1.30;;;;;;;;;;5042500;28;20182;-75
2023/01/07 14:11:53;;;;;;;1.50;1.30;;;;;;;;;;5037273;28;20248;-75
2023/01/07 14:14:25;;;;;;;1.53;1.40;;;;;;;;;;5023666;28;20201;-75
2023/01/07 14:17:00;;;;;;;1.70;1.60;;;;;;;;;;5043278;28;20170;-74
2023/01/07 14:19:39;;;;;;;1.63;1.53;;;;;;;;;;5038361;28;20201;-75
2023/01/07 14:22:25;;;;;;;1.63;1.37;;;;;;;;;;5039766;28;20889;-75
2023/01/07 14:25:03;;;;;;;1.70;1.60;;;;;;;;;;5046685;28;20201;-74
2023/01/07 14:28:08;;;;;;;5.00;4.60;;;;;;;;;;5038128;28;20172;-76
2023/01/07 14:30:35;;;;;;;2.00;1.90;;;;;;;;;;4961971;28;20216;-75
2023/01/07 14:33:03;;;;;;;2.33;1.97;;;;;;;;;;4962983;28;20195;-74
2023/01/07 14:35:33;;;;;;;2.10;1.90;;;;;;;;;;4998070;28;20270;-74
2023/01/07 14:37:59;;;;;;;1.67;1.57;;;;;;;;;;5039123;28;20187;-76
2023/01/07 14:40:25;;;;;;;1.57;1.47;;;;;;;;;;5039525;28;20608;-76
2023/01/07 14:42:52;;;;;;;1.73;1.53;;;;;;;;;;5043763;28;20178;-76
2023/01/07 14:45:37;;;;;;;2.30;1.70;;;;;;;;;;5042737;28;20643;-75
2023/01/07 14:48:07;;;;;;;4.10;2.10;;;;;;;;;;5040384;28;20612;-77
2023/01/07 14:50:39;;;;;;;3.90;2.60;;;;;;;;;;5041676;28;20748;-74
2023/01/07 14:53:09;;;;;;;2.67;2.47;;;;;;;;;;5038681;28;20239;-74
2023/01/07 14:55:58;;;;;;;3.03;2.40;;;;;;;;;;5039433;28;20657;-74
2023/01/07 14:58:43;;;;;;;2.53;2.33;;;;;;;;;;5034158;28;20340;-74
2023/01/07 15:01:12;;;;;;;2.90;2.60;;;;;;;;;;5042480;28;20214;-75
2023/01/07 15:03:48;;;;;;;3.17;2.50;;;;;;;;;;5043765;28;20697;-75
2023/01/07 15:06:23;;;;;;;2.50;2.30;;;;;;;;;;5039454;28;20198;-76